Time;durP1;ratioP1;P1;durP2;ratioP2;P2;SDS_P1;SDS_P2;PMS_P1;PMS_P2;Temp;Humidity;BMP_temperature;BMP_pressure;BME280_temperature;BME280_humidity;BME280_pressure;Samples;Min_cycle;Max_cycle;Signal;HPM_P1;HPM_P2
2022/03/03 00:02:06;;;;;;;36.00;15.83;;;;;;;-1.86;69.44;94013.16;5027961;28;20037;-61
2022/03/03 00:04:33;;;;;;;39.35;16.08;;;;;;;-1.85;69.63;94016.63;5035490;28;20041;-62
2022/03/03 00:07:00;;;;;;;36.88;16.85;;;;;;;-1.89;69.39;94016.53;5047325;28;20512;-61
2022/03/03 00:09:27;;;;;;;36.58;15.95;;;;;;;-2.16;69.99;94017.91;5047949;28;20051;-61
2022/03/03 00:11:53;;;;;;;37.30;16.55;;;;;;;-2.13;70.07;94011.06;5045837;28;20073;-61
2022/03/03 00:14:20;;;;;;;41.67;16.30;;;;;;;-2.12;70.22;94023.41;5046666;28;20049;-61
2022/03/03 00:16:47;;;;;;;39.53;17.10;;;;;;;-2.01;70.60;94022.66;5046965;28;20061;-61
2022/03/03 00:19:14;;;;;;;41.80;19.70;;;;;;;-2.10;70.32;94019.28;5047446;28;20045;-61
2022/03/03 00:21:41;;;;;;;36.47;16.58;;;;;;;-2.05;70.14;94027.13;5046160;28;20351;-61
2022/03/03 00:24:08;;;;;;;36.92;16.17;;;;;;;-2.06;69.95;94019.41;5047340;28;20056;-61
2022/03/03 00:26:35;;;;;;;36.80;15.60;;;;;;;-2.04;70.20;94012.56;5047461;28;20047;-61
2022/03/03 00:29:02;;;;;;;35.28;15.82;;;;;;;-2.08;69.98;94013.56;5047239;28;20047;-61
2022/03/03 00:31:29;;;;;;;37.22;15.75;;;;;;;-2.07;70.07;94013.25;5047677;28;20549;-61
2022/03/03 00:33:56;;;;;;;42.10;17.42;;;;;;;-2.05;70.69;94010.22;5045718;28;20053;-61
2022/03/03 00:36:22;;;;;;;39.17;16.52;;;;;;;-2.08;70.48;94011.66;5029396;28;20564;-61
2022/03/03 00:38:49;;;;;;;39.77;17.00;;;;;;;-2.22;70.67;94011.97;5046027;28;20053;-59
2022/03/03 00:41:18;;;;;;;38.92;17.27;;;;;;;-2.24;70.91;94016.88;5046360;28;20102;-61
2022/03/03 00:43:44;;;;;;;37.15;17.05;;;;;;;-2.25;71.04;94017.22;5047264;28;20123;-61
2022/03/03 00:46:11;;;;;;;43.33;17.95;;;;;;;-2.24;71.38;94010.72;5047212;28;20052;-61
2022/03/03 00:48:38;;;;;;;37.83;16.83;;;;;;;-2.27;71.24;94019.47;5046085;28;20114;-61
2022/03/03 00:51:06;;;;;;;37.30;16.93;;;;;;;-2.27;71.22;94016.78;5047113;28;20053;-61
2022/03/03 00:53:34;;;;;;;39.60;17.23;;;;;;;-2.30;71.74;94009.38;5047205;28;20494;-61
2022/03/03 00:56:01;;;;;;;38.08;16.33;;;;;;;-2.35;71.83;94007.69;5046881;28;20059;-61
2022/03/03 00:58:28;;;;;;;36.05;15.98;;;;;;;-2.35;71.80;94006.91;5047569;28;20051;-61
2022/03/03 01:00:55;;;;;;;37.83;16.52;;;;;;;-2.40;71.42;94010.56;5046593;28;20047;-61
2022/03/03 01:03:25;;;;;;;37.17;16.20;;;;;;;-2.42;71.96;94015.47;5047568;28;20059;-61
2022/03/03 01:05:52;;;;;;;36.28;15.07;;;;;;;-2.46;71.42;94014.56;5046600;28;20528;-61
2022/03/03 01:08:19;;;;;;;38.05;16.00;;;;;;;-2.54;71.70;94005.47;5047364;28;20093;-61
2022/03/03 01:10:46;;;;;;;39.38;15.73;;;;;;;-2.55;71.61;94009.28;5047116;28;20063;-61
2022/03/03 01:13:13;;;;;;;38.20;15.75;;;;;;;-2.56;71.24;94002.31;5046818;28;20039;-61
2022/03/03 01:15:39;;;;;;;36.80;15.30;;;;;;;-2.56;71.65;93999.63;5047053;28;20057;-61
2022/03/03 01:18:06;;;;;;;40.83;15.98;;;;;;;-2.58;71.18;94001.09;5046447;28;20056;-61
2022/03/03 01:20:33;;;;;;;36.33;15.65;;;;;;;-2.66;71.82;94000.06;5047058;28;20049;-61
2022/03/03 01:23:00;;;;;;;35.25;14.88;;;;;;;-2.65;71.99;93999.72;5046802;28;20433;-61
2022/03/03 01:25:27;;;;;;;42.63;16.02;;;;;;;-2.58;71.73;93985.75;5047227;28;20052;-61
2022/03/03 01:27:53;;;;;;;43.63;17.13;;;;;;;-2.60;72.00;93990.66;5046356;28;20049;-61
2022/03/03 01:30:20;;;;;;;41.15;16.17;;;;;;;-2.73;72.61;93997.13;5050926;28;20036;-61
2022/03/03 01:32:47;;;;;;;53.85;18.25;;;;;;;-2.84;72.87;93985.97;5050680;28;20094;-61
2022/03/03 01:35:14;;;;;;;41.78;16.65;;;;;;;-2.87;72.97;93979.38;5040303;28;20037;-61
2022/03/03 01:37:40;;;;;;;62.60;20.42;;;;;;;-2.80;72.68;93989.59;5040273;28;20044;-61
2022/03/03 01:40:08;;;;;;;64.40;20.30;;;;;;;-2.81;72.53;93988.03;5049107;28;20059;-61
2022/03/03 01:42:35;;;;;;;58.38;20.52;;;;;;;-2.82;72.74;93989.94;5050292;28;20060;-61
2022/03/03 01:45:03;;;;;;;63.72;20.63;;;;;;;-2.80;72.68;93986.91;5049852;28;20620;-61
2022/03/03 01:47:30;;;;;;;48.85;17.75;;;;;;;-2.80;72.44;93986.91;5050487;28;20037;-62
2022/03/03 01:49:58;;;;;;;51.05;20.58;;;;;;;-2.88;72.64;93982.38;5050015;28;20037;-61
2022/03/03 01:52:25;;;;;;;48.30;17.90;;;;;;;-2.85;72.12;93979.84;5050620;28;20037;-61
2022/03/03 01:54:52;;;;;;;41.88;17.02;;;;;;;-2.90;72.43;93980.03;5048164;28;20071;-61
2022/03/03 01:57:20;;;;;;;35.03;15.00;;;;;;;-2.95;72.54;93972.19;5050382;28;20051;-61
2022/03/03 01:59:48;;;;;;;42.38;16.42;;;;;;;-2.99;72.90;93978.53;5050362;28;20406;-61
2022/03/03 02:02:15;;;;;;;36.95;16.45;;;;;;;-2.96;72.50;93973.28;5048206;28;21808;-61
2022/03/03 02:04:42;;;;;;;38.17;15.83;;;;;;;-2.99;72.82;93967.81;5049791;28;20071;-61
2022/03/03 02:07:10;;;;;;;39.85;15.65;;;;;;;-3.05;72.97;93964.53;5049643;28;20416;-61
2022/03/03 02:09:39;;;;;;;43.67;17.35;;;;;;;-3.14;73.29;93969.97;5049926;28;20052;-61
2022/03/03 02:12:07;;;;;;;44.17;17.75;;;;;;;-3.26;74.18;93970.69;5049683;28;20055;-61
2022/03/03 02:14:47;;;;;;;43.55;18.02;;;;;;;-3.22;74.36;93968.09;5049894;28;20044;-61
2022/03/03 02:17:14;;;;;;;45.80;18.57;;;;;;;-3.17;74.36;93962.56;5049513;28;20039;-61
2022/03/03 02:19:42;;;;;;;44.60;18.35;;;;;;;-3.10;74.38;93953.97;5049631;28;20520;-61
2022/03/03 02:22:09;;;;;;;40.70;17.23;;;;;;;-3.05;73.68;93957.25;5048043;28;20075;-62
2022/03/03 02:24:39;;;;;;;38.35;15.80;;;;;;;-3.08;73.55;93951.75;5049747;28;20043;-62
2022/03/03 02:27:07;;;;;;;39.60;17.30;;;;;;;-3.09;73.61;93948.28;5049364;28;20063;-61
2022/03/03 02:29:34;;;;;;;38.13;16.87;;;;;;;-3.08;73.37;93946.38;5048308;28;20045;-62
2022/03/03 02:32:06;;;;;;;40.65;16.65;;;;;;;-3.19;73.61;93943.31;5049130;28;20055;-61
2022/03/03 02:34:34;;;;;;;40.63;17.73;;;;;;;-3.18;74.09;93947.56;5046718;28;20163;-61
2022/03/03 02:37:01;;;;;;;39.10;17.27;;;;;;;-3.16;74.33;93944.56;5040399;28;20053;-61
2022/03/03 02:39:27;;;;;;;46.25;18.08;;;;;;;-3.18;73.74;93936.81;5061640;28;20080;-61
2022/03/03 02:41:54;;;;;;;47.20;17.80;;;;;;;-3.22;73.59;93941.28;5044304;28;20210;-61
2022/03/03 02:44:21;;;;;;;40.78;16.83;;;;;;;-3.23;74.17;93939.72;5029605;28;20044;-63
2022/03/03 02:46:48;;;;;;;39.90;16.85;;;;;;;-3.24;74.41;93938.13;5028828;28;20050;-61
2022/03/03 02:49:15;;;;;;;44.20;17.23;;;;;;;-3.22;74.56;93938.59;5028842;28;20632;-61
2022/03/03 02:51:41;;;;;;;45.20;17.40;;;;;;;-3.26;73.64;93933.13;5029391;28;20055;-61
2022/03/03 02:54:08;;;;;;;40.23;16.13;;;;;;;-3.27;73.80;93936.13;5028838;28;20055;-61
2022/03/03 02:57:53;;;;;;;40.08;16.50;;;;;;;-3.46;74.24;93936.56;5029179;28;20053;-61
2022/03/03 02:59:25;;;;;;;41.45;16.95;;;;;;;-3.37;74.11;93931.91;5028402;28;20886;-61
2022/03/03 03:01:52;;;;;;;43.50;16.95;;;;;;;-3.39;73.61;93928.00;5028672;28;20905;-61
2022/03/03 03:04:19;;;;;;;36.08;15.57;;;;;;;-3.39;74.15;93925.31;5034951;28;20047;-62
2022/03/03 03:06:46;;;;;;;36.00;15.13;;;;;;;-3.54;74.77;93919.44;5048432;28;20059;-61
2022/03/03 03:09:13;;;;;;;36.03;15.20;;;;;;;-3.49;74.68;93921.91;5048398;28;20074;-61
2022/03/03 03:11:40;;;;;;;36.50;15.43;;;;;;;-3.46;74.28;93925.81;5048870;28;20071;-61
2022/03/03 03:14:07;;;;;;;35.53;15.35;;;;;;;-3.48;74.14;93920.81;5048550;28;20037;-61
2022/03/03 03:16:34;;;;;;;37.45;15.48;;;;;;;-3.45;74.44;93914.78;5048563;28;20168;-62
2022/03/03 03:19:01;;;;;;;35.90;14.50;;;;;;;-3.43;73.66;93912.53;5048561;28;20045;-61
2022/03/03 03:21:28;;;;;;;33.08;14.95;;;;;;;-3.42;73.55;93916.81;5048868;28;20067;-61
2022/03/03 03:23:55;;;;;;;32.00;14.57;;;;;;;-3.42;73.38;93913.31;5047950;28;20047;-61
2022/03/03 03:26:22;;;;;;;35.25;14.60;;;;;;;-3.48;73.68;93915.44;5048750;28;20052;-61
2022/03/03 03:28:49;;;;;;;34.97;14.00;;;;;;;-3.46;73.35;93920.44;5048205;28;20037;-61
2022/03/03 03:31:15;;;;;;;32.53;14.60;;;;;;;-3.46;73.69;93910.53;5046373;28;20585;-61
2022/03/03 03:33:42;;;;;;;33.90;14.93;;;;;;;-3.45;73.15;93912.09;5048363;28;20044;-61
2022/03/03 03:36:09;;;;;;;35.65;16.05;;;;;;;-3.46;73.82;93909.72;5046811;28;20048;-61
2022/03/03 03:38:35;;;;;;;37.35;15.98;;;;;;;-3.49;74.24;93913.06;5046900;28;20048;-61
2022/03/03 03:41:02;;;;;;;38.20;16.92;;;;;;;-3.42;73.61;93908.75;5046774;28;20124;-61
2022/03/03 03:43:29;;;;;;;34.23;15.17;;;;;;;-3.46;73.89;93909.72;5048324;28;20043;-62
2022/03/03 03:45:56;;;;;;;36.13;14.98;;;;;;;-3.49;73.56;93913.06;5047659;28;20045;-61
2022/03/03 03:48:23;;;;;;;33.25;14.65;;;;;;;-3.54;73.56;93905.19;5048378;28;20045;-61
2022/03/03 03:50:50;;;;;;;35.38;14.27;;;;;;;-3.57;72.83;93912.00;5046761;28;20045;-59
2022/03/03 03:53:17;;;;;;;33.63;14.38;;;;;;;-3.56;73.22;93918.16;5048203;28;20048;-61
2022/03/03 03:55:43;;;;;;;36.40;14.93;;;;;;;-3.59;72.96;93918.81;5045758;28;20056;-61
2022/03/03 03:58:10;;;;;;;38.60;16.27;;;;;;;-3.62;72.72;93915.69;5033887;28;20433;-61
2022/03/03 04:00:37;;;;;;;37.95;14.73;;;;;;;-3.62;72.82;93917.59;5028306;28;20049;-61
2022/03/03 04:03:04;;;;;;;33.25;13.80;;;;;;;-3.67;72.27;93910.50;5059743;28;20059;-61
2022/03/03 04:05:31;;;;;;;32.85;14.18;;;;;;;-3.69;72.32;93920.75;5043663;28;20053;-61
2022/03/03 04:07:58;;;;;;;36.30;14.80;;;;;;;-3.68;72.17;93918.84;5047404;28;20057;-61
2022/03/03 04:10:24;;;;;;;33.35;14.05;;;;;;;-3.73;72.41;93914.47;5048081;28;20052;-61
2022/03/03 04:12:51;;;;;;;36.33;15.23;;;;;;;-3.85;73.59;93914.41;5047117;28;20049;-61
2022/03/03 04:15:18;;;;;;;36.75;15.63;;;;;;;-3.88;74.72;93920.44;5046716;28;20033;-61
2022/03/03 04:17:44;;;;;;;35.85;15.27;;;;;;;-3.85;74.18;93914.41;5047346;28;20045;-61
2022/03/03 04:20:11;;;;;;;38.00;15.27;;;;;;;-3.85;74.60;93911.72;5047587;28;20045;-61
2022/03/03 04:22:39;;;;;;;37.63;15.88;;;;;;;-3.89;74.49;93898.16;5047731;28;20751;-61
2022/03/03 04:25:10;;;;;;;37.05;15.90;;;;;;;-3.90;74.58;93904.66;5047533;28;20049;-61
2022/03/03 04:27:38;;;;;;;39.80;16.75;;;;;;;-3.90;74.60;93895.84;5047326;28;20036;-59
2022/03/03 04:30:10;;;;;;;39.13;16.92;;;;;;;-3.93;75.04;93894.56;5045669;28;20045;-60
2022/03/03 04:32:38;;;;;;;43.00;18.93;;;;;;;-4.02;75.57;93893.84;5047523;28;20045;-60
2022/03/03 04:35:06;;;;;;;38.20;17.85;;;;;;;-4.06;75.30;93887.56;5047013;28;20433;-60
2022/03/03 04:37:33;;;;;;;39.60;18.05;;;;;;;-3.98;75.14;93891.28;5047425;28;20106;-60
2022/03/03 04:40:00;;;;;;;38.85;16.50;;;;;;;-4.02;75.49;93893.84;5047097;28;20049;-60
2022/03/03 04:42:27;;;;;;;46.42;16.15;;;;;;;-4.07;75.61;93889.44;5047829;28;20047;-60
2022/03/03 04:44:54;;;;;;;37.97;16.53;;;;;;;-4.12;75.13;93889.63;5045471;28;20053;-59
2022/03/03 04:47:20;;;;;;;38.20;17.00;;;;;;;-4.08;74.66;93889.78;5047573;28;20355;-60
2022/03/03 04:49:47;;;;;;;40.92;17.23;;;;;;;-4.08;75.21;93889.78;5047331;28;20053;-60
2022/03/03 04:52:14;;;;;;;37.15;15.93;;;;;;;-4.10;75.40;93894.69;5045814;28;20070;-60
2022/03/03 04:54:42;;;;;;;38.63;17.17;;;;;;;-4.01;75.43;93895.41;5040093;28;20075;-60
2022/03/03 04:57:08;;;;;;;40.23;16.50;;;;;;;-4.06;74.69;93900.97;5033587;28;20078;-60
2022/03/03 04:59:35;;;;;;;39.28;17.15;;;;;;;-4.09;74.76;93896.25;5046416;28;20092;-60
2022/03/03 05:02:02;;;;;;;41.75;17.48;;;;;;;-4.12;75.32;93892.31;5080844;28;20512;-60
2022/03/03 05:04:29;;;;;;;48.47;19.27;;;;;;;-4.13;75.30;93887.28;5051556;28;20068;-60
2022/03/03 05:06:56;;;;;;;39.75;18.42;;;;;;;-4.15;75.44;93889.50;5050720;28;20401;-60
2022/03/03 05:09:22;;;;;;;43.80;19.03;;;;;;;-4.16;75.58;93891.41;5033462;28;20049;-60
2022/03/03 05:11:49;;;;;;;43.00;17.95;;;;;;;-4.12;75.72;93892.31;5050786;28;20059;-54
2022/03/03 05:14:16;;;;;;;42.13;18.60;;;;;;;-4.13;75.65;93881.91;5083238;28;20036;-60
2022/03/03 05:16:43;;;;;;;42.45;17.95;;;;;;;-4.15;75.20;93882.22;5050417;28;20397;-61
2022/03/03 05:19:09;;;;;;;42.05;17.23;;;;;;;-4.14;75.50;93885.72;5050611;28;20045;-60
2022/03/03 05:21:37;;;;;;;40.40;16.80;;;;;;;-4.19;75.21;93886.66;5050766;28;20049;-60
2022/03/03 05:24:04;;;;;;;39.72;16.15;;;;;;;-4.22;75.51;93885.44;5049126;28;20044;-60
2022/03/03 05:26:31;;;;;;;39.47;17.25;;;;;;;-4.23;75.81;93880.38;5050733;28;20049;-60
2022/03/03 05:28:58;;;;;;;37.50;15.98;;;;;;;-4.24;75.69;93879.59;5050174;28;20051;-60
2022/03/03 05:31:24;;;;;;;40.42;17.33;;;;;;;-4.29;75.50;93879.78;5050683;28;20047;-60
2022/03/03 05:33:52;;;;;;;42.90;18.27;;;;;;;-4.35;76.30;93875.72;5048913;28;20107;-60
2022/03/03 05:36:18;;;;;;;41.05;18.92;;;;;;;-4.36;76.48;93887.53;5050705;28;20045;-60
2022/03/03 05:38:45;;;;;;;42.58;18.02;;;;;;;-4.35;76.82;93875.72;5049007;28;20053;-60
2022/03/03 05:41:12;;;;;;;42.42;17.30;;;;;;;-4.34;76.74;93879.97;5050225;28;20055;-60
2022/03/03 05:43:39;;;;;;;39.35;18.40;;;;;;;-4.33;76.71;93883.44;5050074;28;20056;-60
2022/03/03 05:46:05;;;;;;;41.90;18.80;;;;;;;-4.42;76.63;93883.47;5049920;28;20055;-60
2022/03/03 05:48:33;;;;;;;40.00;17.63;;;;;;;-4.40;77.20;93865.19;5050040;28;20057;-61
2022/03/03 05:51:00;;;;;;;42.35;18.83;;;;;;;-4.38;76.49;93873.69;5050102;28;20440;-60
2022/03/03 05:53:27;;;;;;;39.58;16.77;;;;;;;-4.40;76.94;93867.09;5050204;28;20049;-60
2022/03/03 05:55:57;;;;;;;39.35;17.95;;;;;;;-4.46;77.03;93867.25;5038976;28;20417;-60
2022/03/03 05:58:41;;;;;;;40.80;18.10;;;;;;;-4.44;76.74;93862.34;5031666;28;20053;-60
2022/03/03 06:01:10;;;;;;;54.85;23.13;;;;;;;-4.38;76.63;93867.56;5029908;28;20069;-60
2022/03/03 06:03:38;;;;;;;47.03;19.13;;;;;;;-4.43;76.95;93871.19;5029694;28;20103;-60
2022/03/03 06:06:28;;;;;;;39.95;17.10;;;;;;;-4.36;77.22;93884.09;5031706;28;20049;-60
2022/03/03 06:09:03;;;;;;;43.17;18.65;;;;;;;-4.28;76.53;93875.22;5049371;28;20045;-60
2022/03/03 06:11:30;;;;;;;39.97;18.37;;;;;;;-4.26;75.98;93873.78;5049866;28;20049;-60
2022/03/03 06:14:07;;;;;;;44.90;19.45;;;;;;;-4.24;76.17;93881.50;5048687;28;20123;-60
2022/03/03 06:16:35;;;;;;;50.65;21.60;;;;;;;-4.21;75.43;93872.81;5049296;28;20057;-60
2022/03/03 06:19:03;;;;;;;116.25;34.00;;;;;;;-4.21;75.62;93886.97;5048088;28;20061;-60
2022/03/03 06:21:30;;;;;;;187.73;57.97;;;;;;;-4.26;76.15;93881.03;5049856;28;20490;-60
2022/03/03 06:23:57;;;;;;;110.60;38.67;;;;;;;-4.20;75.98;93879.75;5049255;28;20063;-60
2022/03/03 06:26:25;;;;;;;118.25;49.10;;;;;;;-4.17;76.43;93883.66;5049662;28;20055;-60
2022/03/03 06:28:52;;;;;;;72.75;30.13;;;;;;;-4.23;76.77;93885.75;5049084;28;20142;-60
2022/03/03 06:31:20;;;;;;;63.58;27.30;;;;;;;-4.08;75.84;93882.53;5049656;28;20406;-60
2022/03/03 06:33:47;;;;;;;61.30;24.38;;;;;;;-4.08;76.36;93882.53;5048995;28;20514;-60
2022/03/03 06:36:14;;;;;;;57.43;22.07;;;;;;;-4.03;76.38;93885.00;5049067;28;20051;-60
2022/03/03 06:38:41;;;;;;;53.97;23.33;;;;;;;-4.03;76.21;93876.19;5048991;28;20068;-60
2022/03/03 06:41:08;;;;;;;61.80;25.45;;;;;;;-4.01;76.51;93880.09;5048872;28;20048;-60
2022/03/03 06:43:36;;;;;;;56.15;23.42;;;;;;;-3.86;75.74;93884.13;5047681;28;20045;-60
2022/03/03 06:46:03;;;;;;;53.65;22.90;;;;;;;-3.79;75.47;93880.94;5047088;28;20055;-60
2022/03/03 06:48:31;;;;;;;56.13;22.83;;;;;;;-3.79;75.09;93875.56;5047763;28;20047;-60
2022/03/03 06:51:03;;;;;;;47.90;21.35;;;;;;;-3.77;75.04;93876.03;5048946;28;20039;-60
2022/03/03 06:53:33;;;;;;;47.05;20.38;;;;;;;-3.66;74.96;93876.44;5049373;28;20049;-61
2022/03/03 06:56:08;;;;;;;46.10;20.48;;;;;;;-3.57;74.54;93868.31;5031030;28;20049;-61
2022/03/03 06:58:35;;;;;;;46.25;20.27;;;;;;;-3.68;74.36;93863.34;5047336;28;20061;-61
2022/03/03 07:01:05;;;;;;;47.23;18.93;;;;;;;-3.49;74.25;93864.78;5048680;28;20057;-60
2022/03/03 07:03:33;;;;;;;44.40;19.60;;;;;;;-3.39;74.16;93867.06;5048775;28;20067;-63
2022/03/03 07:06:02;;;;;;;46.30;19.70;;;;;;;-3.45;74.18;93860.34;5048579;28;20116;-60
2022/03/03 07:08:28;;;;;;;45.55;19.27;;;;;;;-3.17;74.10;93857.09;5049086;28;20559;-60
2022/03/03 07:10:55;;;;;;;46.00;18.83;;;;;;;-2.94;73.46;93855.59;5044298;28;20098;-61
2022/03/03 07:13:22;;;;;;;46.27;19.10;;;;;;;-2.89;74.00;93858.09;5032085;28;20063;-60
2022/03/03 07:15:52;;;;;;;44.65;19.33;;;;;;;-2.73;73.57;93857.47;5029584;28;20050;-60
2022/03/03 07:18:27;;;;;;;47.70;20.73;;;;;;;-2.50;72.62;93857.81;5007188;28;21540;-60
2022/03/03 07:21:20;;;;;;;42.97;18.85;;;;;;;-2.36;73.02;93855.59;5040265;28;20549;-60
2022/03/03 07:24:15;;;;;;;50.88;20.25;;;;;;;-2.23;72.87;93853.72;5009007;28;20053;-61
2022/03/03 07:26:47;;;;;;;43.13;18.93;;;;;;;-2.16;72.60;93848.53;5008680;28;20438;-60
2022/03/03 07:29:16;;;;;;;42.35;19.80;;;;;;;-1.50;70.98;93854.75;5000805;28;20045;-59
2022/03/03 07:31:54;;;;;;;45.17;21.10;;;;;;;1.64;61.86;93843.44;4997250;28;20060;-60
2022/03/03 07:34:33;;;;;;;45.42;20.65;;;;;;;4.50;53.32;93831.66;4998374;28;20490;-60
2022/03/03 07:37:07;;;;;;;41.53;21.02;;;;;;;6.00;48.10;93830.69;4996985;28;20053;-60
2022/03/03 07:39:43;;;;;;;39.77;21.03;;;;;;;8.05;42.26;93824.56;4994278;28;20046;-60
2022/03/03 07:42:15;;;;;;;38.90;21.30;;;;;;;10.05;39.78;93818.13;4988471;28;20056;-60
2022/03/03 07:44:42;;;;;;;34.70;20.88;;;;;;;11.23;36.83;93816.16;4989862;28;20046;-60
2022/03/03 07:47:09;;;;;;;37.30;22.08;;;;;;;10.87;35.72;93822.28;4989130;28;20049;-61
2022/03/03 07:49:40;;;;;;;34.08;20.23;;;;;;;12.62;32.95;93817.06;4987837;28;20460;-61
2022/03/03 07:52:08;;;;;;;32.07;20.13;;;;;;;12.94;31.66;93815.47;4988200;28;20054;-61
2022/03/03 07:54:35;;;;;;;32.53;21.05;;;;;;;13.16;30.49;93824.72;4989489;28;20050;-61
2022/03/03 07:57:04;;;;;;;32.97;21.80;;;;;;;10.91;34.39;93812.03;5006092;28;20064;-62
2022/03/03 07:59:34;;;;;;;36.05;22.33;;;;;;;12.28;32.30;93812.75;5009295;28;20038;-61
2022/03/03 08:02:03;;;;;;;38.03;23.33;;;;;;;10.68;33.53;93810.06;5008859;28;20080;-61
2022/03/03 08:04:32;;;;;;;36.00;23.37;;;;;;;11.00;33.50;93804.00;5009258;28;20044;-61
2022/03/03 08:07:09;;;;;;;36.53;22.85;;;;;;;10.15;35.48;93798.75;5008943;28;20046;-61
2022/03/03 08:09:38;;;;;;;34.60;22.20;;;;;;;12.26;32.43;93803.38;5009065;28;20061;-62
2022/03/03 08:12:07;;;;;;;34.42;21.15;;;;;;;12.73;30.77;93803.00;5008862;28;20038;-60
2022/03/03 08:14:35;;;;;;;33.05;21.80;;;;;;;13.53;30.74;93785.94;5008713;28;20038;-61
2022/03/03 08:17:03;;;;;;;33.83;22.07;;;;;;;14.24;29.89;93788.53;5028550;28;20052;-59
2022/03/03 08:19:30;;;;;;;30.75;21.73;;;;;;;14.38;29.47;93782.56;5047393;28;20363;-60
2022/03/03 08:21:58;;;;;;;33.10;23.27;;;;;;;14.89;28.31;93778.19;5048151;28;20044;-61
2022/03/03 08:24:26;;;;;;;34.58;22.13;;;;;;;13.98;28.93;93783.03;5048720;28;20045;-61
2022/03/03 08:26:55;;;;;;;33.45;22.30;;;;;;;13.18;30.84;93766.44;5047785;28;20049;-60
2022/03/03 08:29:22;;;;;;;35.37;21.97;;;;;;;14.57;28.66;93764.25;5048452;28;20431;-61
2022/03/03 08:31:53;;;;;;;32.15;22.27;;;;;;;16.42;26.87;93757.16;5048207;28;20425;-61
2022/03/03 08:34:47;;;;;;;33.72;21.20;;;;;;;16.82;25.42;93752.78;5047779;28;20419;-61
2022/03/03 08:37:28;;;;;;;32.45;21.25;;;;;;;15.80;26.51;93746.91;5047722;28;20042;-61
2022/03/03 08:39:57;;;;;;;36.25;20.70;;;;;;;16.86;25.90;93748.66;5048040;28;20041;-61
2022/03/03 08:42:30;;;;;;;30.43;21.00;;;;;;;17.51;24.82;93751.41;5047263;28;20044;-61
2022/03/03 08:45:02;;;;;;;29.70;21.48;;;;;;;17.35;24.44;93744.19;5047807;28;20041;-61
2022/03/03 08:47:31;;;;;;;30.40;21.70;;;;;;;16.71;26.07;93742.91;5048530;28;20071;-61
2022/03/03 08:50:01;;;;;;;31.52;21.73;;;;;;;14.12;29.19;93754.22;5047841;28;20311;-61
2022/03/03 08:52:47;;;;;;;32.92;21.70;;;;;;;14.81;28.92;93754.78;5048360;28;20063;-61
2022/03/03 08:55:15;;;;;;;31.87;21.47;;;;;;;16.77;25.76;93751.38;5047874;28;20071;-61
2022/03/03 08:57:42;;;;;;;33.35;21.20;;;;;;;17.61;25.57;93738.31;5048079;28;20204;-61
2022/03/03 09:00:11;;;;;;;31.67;22.25;;;;;;;17.13;25.44;93742.34;5047734;28;20512;-61
2022/03/03 09:02:40;;;;;;;32.58;20.75;;;;;;;19.29;22.96;93735.00;5048093;28;20071;-61
2022/03/03 09:05:08;;;;;;;28.80;20.90;;;;;;;19.21;22.92;93731.81;5047624;28;20045;-61
2022/03/03 09:07:36;;;;;;;29.23;21.63;;;;;;;18.96;23.84;93728.28;5048345;28;20109;-61
2022/03/03 09:10:04;;;;;;;31.08;20.73;;;;;;;20.10;22.68;93720.75;5041101;28;20487;-61
2022/03/03 09:12:31;;;;;;;30.40;20.95;;;;;;;20.51;21.31;93725.66;5028828;28;20045;-61
2022/03/03 09:14:58;;;;;;;29.85;22.05;;;;;;;19.23;22.75;93732.09;5028084;28;20774;-61
2022/03/03 09:17:31;;;;;;;33.25;19.88;;;;;;;20.64;22.42;93736.50;5028153;28;20046;-61
2022/03/03 09:20:00;;;;;;;30.27;21.17;;;;;;;23.00;19.47;93732.44;5027229;28;20061;-61
2022/03/03 09:22:28;;;;;;;27.70;20.33;;;;;;;21.99;20.71;93734.50;5028389;28;20052;-61
2022/03/03 09:24:55;;;;;;;29.60;21.13;;;;;;;23.29;19.33;93730.53;5027602;28;20052;-60
2022/03/03 09:27:23;;;;;;;29.98;21.40;;;;;;;22.39;19.20;93738.41;5028108;28;20572;-61
2022/03/03 09:29:50;;;;;;;29.15;20.23;;;;;;;23.57;18.15;93729.88;5027381;28;20053;-59
2022/03/03 09:32:18;;;;;;;29.93;20.10;;;;;;;25.89;15.69;93731.78;5027973;28;20050;-61
2022/03/03 09:34:45;;;;;;;28.13;19.45;;;;;;;25.51;16.55;93723.09;5026547;28;20052;-61
2022/03/03 09:37:13;;;;;;;38.30;21.58;;;;;;;25.72;15.98;93728.34;5027460;28;20532;-61
2022/03/03 09:39:41;;;;;;;26.08;18.85;;;;;;;25.99;16.21;93721.03;5027685;28;20064;-62
2022/03/03 09:42:10;;;;;;;26.67;19.15;;;;;;;26.20;16.04;93712.97;5042521;28;20132;-61
2022/03/03 09:44:37;;;;;;;28.30;19.47;;;;;;;25.03;16.43;93704.63;5028017;28;20060;-61
2022/03/03 09:47:04;;;;;;;26.65;18.52;;;;;;;23.08;18.51;93708.31;5027046;28;20041;-61
2022/03/03 09:49:31;;;;;;;32.08;18.60;;;;;;;21.37;19.56;93709.53;5030086;28;20037;-61
2022/03/03 09:51:58;;;;;;;34.38;19.85;;;;;;;21.27;21.21;93711.69;5030662;28;20045;-61
2022/03/03 09:54:25;;;;;;;27.15;19.27;;;;;;;23.46;19.20;93702.59;5031156;28;20052;-61
2022/03/03 09:56:51;;;;;;;26.10;18.07;;;;;;;25.80;16.82;93697.63;5030007;28;20048;-61
2022/03/03 09:59:18;;;;;;;25.20;17.13;;;;;;;25.25;15.82;93689.78;5029686;28;20045;-61
2022/03/03 10:01:46;;;;;;;22.70;16.42;;;;;;;22.48;17.45;93691.47;5029636;28;20046;-61
2022/03/03 10:04:23;;;;;;;20.73;14.30;;;;;;;23.79;16.70;93689.97;5035550;28;20045;-61
2022/03/03 10:06:51;;;;;;;22.05;14.85;;;;;;;23.59;16.22;93693.72;5049213;28;20033;-60
2022/03/03 10:09:18;;;;;;;21.80;14.37;;;;;;;21.79;17.28;93693.44;5047854;28;20437;-61
2022/03/03 10:11:48;;;;;;;23.10;15.93;;;;;;;21.17;18.90;93685.19;5040185;28;20056;-61
2022/03/03 10:14:32;;;;;;;22.13;15.50;;;;;;;22.18;19.75;93681.81;5050605;28;20689;-61
2022/03/03 10:16:59;;;;;;;22.10;16.35;;;;;;;16.29;25.66;93693.56;5050166;28;20045;-61
2022/03/03 10:19:54;;;;;;;28.85;17.63;;;;;;;18.24;24.24;93683.03;5051211;28;20049;-61
2022/03/03 10:22:45;;;;;;;24.63;16.63;;;;;;;20.33;21.50;93687.66;5049673;28;20431;-61
2022/03/03 10:25:14;;;;;;;23.65;16.38;;;;;;;20.69;20.39;93686.41;5050376;28;20040;-61
2022/03/03 10:27:41;;;;;;;24.33;16.17;;;;;;;19.89;21.27;93680.16;5050466;28;20141;-61
2022/03/03 10:30:10;;;;;;;22.98;16.60;;;;;;;18.45;22.56;93684.78;5050162;28;20139;-61
2022/03/03 10:32:38;;;;;;;24.10;17.20;;;;;;;18.39;22.64;93685.88;5050584;28;20041;-61
2022/03/03 10:35:17;;;;;;;23.87;16.53;;;;;;;16.22;24.12;93682.00;5049506;28;20482;-61
2022/03/03 10:37:45;;;;;;;24.88;15.80;;;;;;;16.68;24.11;93684.84;5050514;28;20151;-62
2022/03/03 10:40:17;;;;;;;22.08;15.00;;;;;;;20.38;20.39;93678.59;5050244;28;20049;-61
2022/03/03 10:42:47;;;;;;;25.25;15.13;;;;;;;23.24;17.23;93675.28;5050487;28;20055;-61
2022/03/03 10:45:19;;;;;;;23.30;16.38;;;;;;;18.56;20.59;93675.88;5049858;28;20044;-61
2022/03/03 10:47:59;;;;;;;21.53;14.60;;;;;;;17.47;23.08;93673.13;5050102;28;20048;-61
2022/03/03 10:50:26;;;;;;;27.98;15.68;;;;;;;20.82;19.48;93669.31;5049169;28;20049;-61
2022/03/03 10:52:53;;;;;;;22.90;14.18;;;;;;;22.17;18.22;93667.06;5049749;28;20040;-61
2022/03/03 10:55:20;;;;;;;24.45;16.00;;;;;;;17.69;22.61;93675.69;5050163;28;20037;-61
2022/03/03 10:57:59;;;;;;;22.17;15.88;;;;;;;20.05;20.05;93670.53;5049473;28;20059;-61
2022/03/03 11:00:29;;;;;;;20.50;14.27;;;;;;;22.79;17.59;93659.06;5049762;28;20041;-61
2022/03/03 11:02:59;;;;;;;24.38;15.50;;;;;;;16.27;25.29;93673.88;5049457;28;20059;-61
2022/03/03 11:05:28;;;;;;;24.23;15.88;;;;;;;20.54;20.01;93664.13;5049926;28;20049;-61
2022/03/03 11:07:58;;;;;;;50.95;16.92;;;;;;;23.47;16.92;93648.13;5049428;28;20046;-61
2022/03/03 11:10:29;;;;;;;23.63;15.65;;;;;;;16.42;23.61;93660.22;5038182;28;20045;-61
2022/03/03 11:12:56;;;;;;;24.93;17.03;;;;;;;15.10;26.36;93655.84;5040652;28;20045;-61
2022/03/03 11:15:25;;;;;;;24.02;16.52;;;;;;;14.67;27.30;93657.41;5049813;28;20465;-61
2022/03/03 11:17:55;;;;;;;22.63;15.85;;;;;;;20.33;20.40;93652.19;5048554;28;20059;-60
2022/03/03 11:20:23;;;;;;;23.63;15.80;;;;;;;16.86;23.26;93653.63;5049511;28;20536;-61
2022/03/03 11:22:55;;;;;;;25.15;14.82;;;;;;;20.04;19.84;93649.47;5048817;28;20154;-60
2022/03/03 11:25:34;;;;;;;22.50;14.70;;;;;;;19.44;20.29;93654.34;5049645;28;20045;-61